Time;durP1;ratioP1;P1;durP2;ratioP2;P2;SDS_P1;SDS_P2;PMS_P1;PMS_P2;Temp;Humidity;BMP_temperature;BMP_pressure;BME280_temperature;BME280_humidity;BME280_pressure;Samples;Min_cycle;Max_cycle;Signal;HPM_P1;HPM_P2
2023/11/27 00:01:53;;;;;;;23.20;12.10;;;;;;;4.85;74.65;98599.81;5093487;28;20035;-49
2023/11/27 00:04:18;;;;;;;20.45;10.15;;;;;;;5.22;74.41;98595.81;5094787;28;20020;-49
2023/11/27 00:06:44;;;;;;;22.45;10.82;;;;;;;5.46;73.14;98589.69;5094782;28;20028;-49
2023/11/27 00:09:10;;;;;;;24.30;12.35;;;;;;;5.36;71.28;98589.91;5094652;28;20024;-49
2023/11/27 00:11:38;;;;;;;18.27;11.70;;;;;;;4.74;69.81;98584.56;5093315;28;20062;-50
2023/11/27 00:14:08;;;;;;;23.77;12.38;;;;;;;4.17;71.69;98585.41;5094638;28;20020;-49
2023/11/27 00:16:34;;;;;;;17.85;11.75;;;;;;;3.68;71.73;98593.09;5094524;28;20020;-49
2023/11/27 00:18:59;;;;;;;23.63;11.50;;;;;;;3.43;73.71;98585.25;5094390;28;20058;-49
2023/11/27 00:21:25;;;;;;;22.38;13.35;;;;;;;3.19;74.08;98581.59;5094439;28;20052;-49
2023/11/27 00:23:51;;;;;;;20.80;11.88;;;;;;;2.97;74.78;98582.94;5093095;28;20054;-49
2023/11/27 00:26:16;;;;;;;28.95;13.80;;;;;;;2.94;76.21;98575.47;5094010;28;20127;-49
2023/11/27 00:28:42;;;;;;;20.80;10.90;;;;;;;3.25;77.17;98571.56;5093037;28;20024;-49
2023/11/27 00:31:09;;;;;;;19.00;11.38;;;;;;;3.57;77.56;98569.06;5094251;28;20030;-48
2023/11/27 00:33:36;;;;;;;16.88;9.75;;;;;;;3.95;77.08;98563.47;5094248;28;20020;-49
2023/11/27 00:36:03;;;;;;;23.52;11.02;;;;;;;4.68;77.09;98556.63;5092888;28;20652;-49
2023/11/27 00:38:29;;;;;;;17.85;10.90;;;;;;;4.87;74.28;98551.06;5094112;28;20016;-49
2023/11/27 00:40:54;;;;;;;20.42;11.20;;;;;;;4.38;73.12;98549.34;5094095;28;20035;-49
2023/11/27 00:43:20;;;;;;;19.58;11.40;;;;;;;4.06;73.93;98549.34;5075849;28;20110;-49
2023/11/27 00:45:46;;;;;;;18.35;12.25;;;;;;;3.87;73.90;98546.09;5092710;28;20113;-49
2023/11/27 00:48:12;;;;;;;33.88;13.45;;;;;;;4.16;76.64;98540.41;5092572;28;20069;-49
2023/11/27 00:50:37;;;;;;;18.65;11.20;;;;;;;4.72;76.15;98544.91;5092616;28;20024;-49
2023/11/27 00:53:03;;;;;;;21.60;11.73;;;;;;;5.23;74.64;98541.97;5094111;28;20035;-49
2023/11/27 00:55:29;;;;;;;17.45;11.35;;;;;;;5.22;73.09;98535.97;5092492;28;20023;-49
2023/11/27 00:57:55;;;;;;;18.30;10.88;;;;;;;5.06;72.80;98531.66;5093685;28;20032;-49
2023/11/27 01:00:21;;;;;;;19.67;12.82;;;;;;;5.02;71.85;98535.56;5092386;28;20103;-49
2023/11/27 01:02:47;;;;;;;27.65;16.15;;;;;;;4.70;71.39;98526.88;5092807;28;20386;-49
2023/11/27 01:05:14;;;;;;;29.83;22.17;;;;;;;4.43;71.56;98525.47;5092276;28;20024;-49
2023/11/27 01:07:42;;;;;;;22.05;14.13;;;;;;;4.31;72.24;98532.81;5093582;28;20028;-49
2023/11/27 01:10:08;;;;;;;19.35;12.65;;;;;;;4.18;72.13;98524.69;5093710;28;20028;-49
2023/11/27 01:12:34;;;;;;;28.15;18.38;;;;;;;3.94;71.75;98520.28;5093469;28;20046;-49
2023/11/27 01:15:02;;;;;;;30.52;24.88;;;;;;;3.90;73.96;98524.19;5093385;28;20035;-49
2023/11/27 01:17:28;;;;;;;22.42;10.93;;;;;;;4.40;75.15;98513.59;5093372;28;20104;-49
2023/11/27 01:19:53;;;;;;;21.95;14.45;;;;;;;4.77;73.80;98506.25;5091943;28;20476;-49
2023/11/27 01:22:19;;;;;;;21.95;11.82;;;;;;;4.86;72.99;98507.81;5091905;28;20032;-49
2023/11/27 01:24:45;;;;;;;27.30;16.63;;;;;;;5.04;72.38;98492.00;5093192;28;20437;-49
2023/11/27 01:27:10;;;;;;;18.92;12.80;;;;;;;5.03;72.34;98485.19;5091576;28;20048;-49
2023/11/27 01:29:36;;;;;;;16.40;11.77;;;;;;;4.54;71.08;98478.34;5093151;28;20027;-49
2023/11/27 01:32:02;;;;;;;18.55;12.13;;;;;;;3.95;71.95;98489.00;5091675;28;20024;-49
2023/11/27 01:34:27;;;;;;;23.05;12.43;;;;;;;3.73;73.06;98485.25;5091697;28;20020;-49
2023/11/27 01:36:53;;;;;;;34.33;19.00;;;;;;;4.02;74.78;98475.34;5091676;28;20028;-49
2023/11/27 01:39:19;;;;;;;39.13;28.38;;;;;;;4.40;75.44;98476.44;5091493;28;20438;-49
2023/11/27 01:41:44;;;;;;;17.08;10.45;;;;;;;5.03;74.24;98474.78;5091587;28;20028;-49
2023/11/27 01:44:10;;;;;;;24.92;16.95;;;;;;;5.17;72.88;98475.81;5092876;28;20051;-49
2023/11/27 01:46:44;;;;;;;26.50;16.58;;;;;;;5.39;72.81;98476.84;5092809;28;20458;-49
2023/11/27 01:49:11;;;;;;;26.77;17.08;;;;;;;5.76;71.88;98477.91;5091463;28;20035;-49
2023/11/27 01:51:37;;;;;;;33.30;26.33;;;;;;;5.96;71.27;98473.88;5091416;28;20028;-49
2023/11/27 01:54:03;;;;;;;26.50;21.35;;;;;;;6.27;70.54;98474.72;5092910;28;20441;-49
2023/11/27 01:56:30;;;;;;;18.85;13.73;;;;;;;6.56;68.79;98476.53;5092646;28;20028;-49
2023/11/27 01:58:58;;;;;;;31.10;22.02;;;;;;;6.37;67.81;98470.88;5092505;28;20020;-49
2023/11/27 02:01:25;;;;;;;42.72;29.83;;;;;;;6.18;68.44;98468.81;5092522;28;20435;-49
2023/11/27 02:03:51;;;;;;;50.67;41.00;;;;;;;6.28;68.74;98469.34;5092439;28;20056;-49
2023/11/27 02:06:17;;;;;;;22.45;16.13;;;;;;;6.12;67.35;98459.09;5091426;28;20035;-49
2023/11/27 02:08:43;;;;;;;19.40;13.75;;;;;;;5.68;67.16;98457.16;5092387;28;20028;-49
2023/11/27 02:11:08;;;;;;;49.50;42.20;;;;;;;5.51;68.92;98461.63;5091027;28;20024;-49
2023/11/27 02:13:34;;;;;;;29.73;23.33;;;;;;;5.69;70.70;98456.94;5092277;28;20490;-49
2023/11/27 02:16:01;;;;;;;69.40;61.10;;;;;;;5.66;71.14;98454.72;5092267;28;20447;-49
2023/11/27 02:18:26;;;;;;;28.48;19.23;;;;;;;5.50;72.19;98452.22;5090875;28;20016;-49
2023/11/27 02:20:52;;;;;;;179.40;157.77;;;;;;;5.39;74.75;98449.03;5092547;28;20115;-49
2023/11/27 02:23:18;;;;;;;178.90;154.77;;;;;;;5.57;74.87;98443.56;5090872;28;20079;-49
2023/11/27 02:25:44;;;;;;;256.77;219.95;;;;;;;5.70;72.71;98448.16;5090593;28;20154;-50
2023/11/27 02:28:10;;;;;;;26.15;18.48;;;;;;;5.75;71.11;98443.22;5092166;28;20024;-49
2023/11/27 02:30:36;;;;;;;100.93;80.93;;;;;;;5.54;70.92;98437.88;5092097;28;20038;-49
2023/11/27 02:33:02;;;;;;;51.30;33.58;;;;;;;5.83;71.44;98434.53;5092352;28;20020;-49
2023/11/27 02:35:28;;;;;;;58.13;46.22;;;;;;;6.05;70.31;98434.72;5090780;28;20024;-49
2023/11/27 02:37:54;;;;;;;43.97;31.25;;;;;;;5.91;69.17;98433.66;5090688;28;20366;-49
2023/11/27 02:40:19;;;;;;;38.13;25.10;;;;;;;5.67;68.97;98440.69;5091928;28;20035;-49
2023/11/27 02:42:45;;;;;;;51.20;29.40;;;;;;;5.35;69.23;98439.13;5090668;28;20432;-49
2023/11/27 02:45:11;;;;;;;24.33;11.40;;;;;;;5.20;70.14;98434.66;5090649;28;20474;-49
2023/11/27 02:47:39;;;;;;;27.75;16.08;;;;;;;5.07;70.08;98438.81;5090733;28;20016;-49
2023/11/27 02:50:05;;;;;;;22.10;13.90;;;;;;;5.14;71.32;98424.16;5091891;28;20030;-49
2023/11/27 02:52:31;;;;;;;25.42;14.50;;;;;;;5.30;72.67;98426.66;5092152;28;20028;-49
2023/11/27 02:55:01;;;;;;;48.63;41.60;;;;;;;5.34;72.59;98425.31;5090480;28;20027;-49
2023/11/27 02:57:26;;;;;;;23.17;12.65;;;;;;;5.28;71.86;98427.81;5091866;28;20524;-49
2023/11/27 02:59:53;;;;;;;24.20;11.98;;;;;;;5.12;71.57;98436.53;5091693;28;20020;-49
2023/11/27 03:02:20;;;;;;;25.95;12.82;;;;;;;4.88;71.00;98429.66;5091723;28;20020;-49
2023/11/27 03:04:46;;;;;;;22.90;14.02;;;;;;;4.62;70.63;98429.94;5091996;28;20402;-49
2023/11/27 03:07:12;;;;;;;20.63;13.32;;;;;;;4.34;70.76;98425.13;5091745;28;20024;-49
2023/11/27 03:09:38;;;;;;;23.70;17.58;;;;;;;4.10;71.33;98432.00;5091630;28;20028;-49
2023/11/27 03:12:04;;;;;;;22.13;13.15;;;;;;;3.95;71.75;98433.66;5091610;28;20099;-49
2023/11/27 03:14:30;;;;;;;21.70;13.57;;;;;;;3.79;72.13;98435.28;5091672;28;20078;-49
2023/11/27 03:16:56;;;;;;;23.88;12.82;;;;;;;3.70;72.41;98425.06;5090278;28;20548;-49
2023/11/27 03:19:22;;;;;;;34.13;21.92;;;;;;;3.69;72.68;98416.47;5090183;28;20027;-49
2023/11/27 03:21:48;;;;;;;23.55;14.70;;;;;;;3.94;74.04;98411.25;5091636;28;20375;-49
2023/11/27 03:24:14;;;;;;;20.73;12.88;;;;;;;4.41;74.04;98397.53;5090219;28;20059;-49
2023/11/27 03:26:40;;;;;;;20.13;10.13;;;;;;;4.94;73.71;98398.56;5094398;28;20445;-49
2023/11/27 03:29:06;;;;;;;17.23;12.27;;;;;;;5.28;72.48;98389.59;5095506;28;20440;-49
2023/11/27 03:31:32;;;;;;;18.13;10.75;;;;;;;5.42;71.46;98382.03;5095445;28;20028;-49
2023/11/27 03:33:58;;;;;;;20.75;11.07;;;;;;;5.20;70.04;98382.66;5095374;28;20449;-49
2023/11/27 03:36:25;;;;;;;15.30;10.30;;;;;;;4.85;69.90;98383.19;5095401;28;20102;-49
2023/11/27 03:38:51;;;;;;;19.33;10.18;;;;;;;4.69;70.22;98379.72;5095206;28;20055;-49
2023/11/27 03:41:21;;;;;;;17.00;9.50;;;;;;;4.52;70.65;98371.16;5095237;28;20051;-49
2023/11/27 03:43:47;;;;;;;16.85;11.25;;;;;;;4.32;71.29;98369.94;5094199;28;20070;-49
2023/11/27 03:46:13;;;;;;;23.58;16.48;;;;;;;4.10;71.77;98369.69;5095134;28;20024;-49
2023/11/27 03:48:39;;;;;;;18.60;11.05;;;;;;;3.77;71.70;98376.75;5095346;28;20375;-49
2023/11/27 03:51:08;;;;;;;28.75;25.13;;;;;;;3.36;72.84;98364.59;5093709;28;20068;-49
2023/11/27 03:53:35;;;;;;;12.57;10.02;;;;;;;3.44;74.33;98371.56;5094894;28;20051;-49
2023/11/27 03:56:00;;;;;;;21.15;11.52;;;;;;;3.59;74.79;98362.16;5093590;28;20055;-49
2023/11/27 03:58:26;;;;;;;18.40;11.35;;;;;;;4.01;74.82;98368.09;5093536;28;20059;-49
2023/11/27 04:00:55;;;;;;;18.73;8.90;;;;;;;4.10;75.09;98359.28;5093544;28;20039;-49
2023/11/27 04:03:21;;;;;;;25.30;14.70;;;;;;;4.27;74.92;98367.06;5094849;28;20023;-49
2023/11/27 04:05:47;;;;;;;18.58;10.10;;;;;;;4.77;74.54;98366.66;5093431;28;20053;-49
2023/11/27 04:08:13;;;;;;;26.98;11.73;;;;;;;4.99;73.88;98359.88;5095065;28;20031;-49
2023/11/27 04:10:41;;;;;;;39.92;28.15;;;;;;;5.51;74.00;98360.94;5093368;28;20498;-49
2023/11/27 04:13:07;;;;;;;23.67;13.27;;;;;;;5.84;72.32;98357.25;5093438;28;20020;-50
2023/11/27 04:15:33;;;;;;;22.27;12.40;;;;;;;5.74;71.27;98357.50;5094668;28;20528;-49
2023/11/27 04:18:00;;;;;;;28.92;20.63;;;;;;;5.69;70.71;98359.81;5093221;28;20024;-50
2023/11/27 04:20:26;;;;;;;26.95;22.00;;;;;;;5.94;71.87;98363.00;5094494;28;20036;-49
2023/11/27 04:22:51;;;;;;;21.85;11.73;;;;;;;6.43;70.85;98362.47;5093300;28;20362;-49
2023/11/27 04:25:18;;;;;;;30.90;18.42;;;;;;;6.51;69.59;98357.16;5092756;28;20052;-50
2023/11/27 04:27:44;;;;;;;19.25;12.65;;;;;;;6.54;69.05;98359.44;5094406;28;20028;-49
2023/11/27 04:30:10;;;;;;;24.95;15.05;;;;;;;6.76;67.98;98362.06;5094296;28;20032;-49
2023/11/27 04:32:36;;;;;;;31.95;20.42;;;;;;;6.76;66.50;98356.84;5094275;28;20035;-49
2023/11/27 04:35:03;;;;;;;50.13;37.20;;;;;;;6.60;66.45;98353.47;5092826;28;20020;-50
2023/11/27 04:37:28;;;;;;;20.90;13.10;;;;;;;6.30;65.79;98365.75;5092976;28;20034;-49
2023/11/27 04:39:54;;;;;;;85.05;65.35;;;;;;;6.12;67.02;98360.09;5092696;28;20024;-49
2023/11/27 04:42:20;;;;;;;79.70;59.33;;;;;;;6.19;67.15;98368.78;5094053;28;20060;-49
2023/11/27 04:44:47;;;;;;;32.35;18.58;;;;;;;6.36;66.75;98372.84;5094031;28;20020;-49
2023/11/27 04:47:12;;;;;;;25.05;17.08;;;;;;;6.36;66.53;98359.00;5093998;28;20390;-49
2023/11/27 04:49:38;;;;;;;39.10;25.63;;;;;;;6.13;66.40;98357.28;5092616;28;20028;-49
2023/11/27 04:52:04;;;;;;;24.77;16.50;;;;;;;5.98;66.14;98354.69;5094070;28;20115;-49
2023/11/27 04:54:33;;;;;;;17.17;13.00;;;;;;;5.69;65.75;98352.00;5093859;28;20028;-49
2023/11/27 04:56:58;;;;;;;16.20;13.27;;;;;;;5.32;65.81;98351.03;5093758;28;20020;-49
2023/11/27 04:59:26;;;;;;;23.33;15.80;;;;;;;4.98;66.93;98355.63;5093671;28;20051;-49
2023/11/27 05:01:52;;;;;;;20.05;12.05;;;;;;;4.68;67.31;98357.28;5093960;28;20381;-49
2023/11/27 05:04:19;;;;;;;23.73;14.13;;;;;;;4.37;68.13;98355.47;5093663;28;20024;-49
2023/11/27 05:06:45;;;;;;;19.33;12.38;;;;;;;4.28;68.59;98359.06;5093570;28;20036;-49
2023/11/27 05:09:16;;;;;;;21.60;12.70;;;;;;;4.15;68.70;98358.81;5093619;28;20402;-49
2023/11/27 05:11:42;;;;;;;18.55;13.95;;;;;;;4.03;69.67;98357.56;5093597;28;20039;-49
2023/11/27 05:14:07;;;;;;;27.73;16.70;;;;;;;3.80;69.57;98360.81;5092143;28;20032;-49
2023/11/27 05:16:33;;;;;;;23.38;16.13;;;;;;;3.75;70.54;98355.31;5093409;28;20393;-49
2023/11/27 05:18:59;;;;;;;22.10;14.52;;;;;;;3.71;70.54;98354.03;5093245;28;20481;-49
2023/11/27 05:21:25;;;;;;;19.23;13.35;;;;;;;3.54;70.95;98355.81;5093340;28;20031;-49
2023/11/27 05:23:50;;;;;;;17.90;15.05;;;;;;;3.43;71.04;98356.16;5092191;28;20114;-47
2023/11/27 05:26:16;;;;;;;24.92;14.80;;;;;;;3.39;71.73;98347.91;5091604;28;20571;-47
2023/11/27 05:28:42;;;;;;;24.45;13.77;;;;;;;3.43;71.92;98351.78;5091873;28;20059;-47
2023/11/27 05:31:09;;;;;;;28.25;16.52;;;;;;;3.41;72.25;98345.94;5091749;28;20032;-47
2023/11/27 05:33:35;;;;;;;27.35;17.13;;;;;;;3.42;72.09;98346.75;5093144;28;20016;-47
2023/11/27 05:36:02;;;;;;;27.65;18.30;;;;;;;3.42;72.65;98342.41;5093006;28;20111;-47
2023/11/27 05:38:28;;;;;;;25.77;17.05;;;;;;;3.43;72.84;98332.81;5092963;28;20024;-47
2023/11/27 05:40:59;;;;;;;27.52;16.42;;;;;;;3.48;72.93;98333.13;5092876;28;20081;-47
2023/11/27 05:43:25;;;;;;;24.67;16.98;;;;;;;3.51;72.63;98327.63;5092912;28;20054;-47
2023/11/27 05:45:50;;;;;;;34.33;22.23;;;;;;;3.60;73.44;98327.47;5091543;28;20024;-47
2023/11/27 05:48:18;;;;;;;30.75;21.63;;;;;;;4.29;75.51;98326.13;5091099;28;20490;-46
2023/11/27 05:50:46;;;;;;;29.17;14.45;;;;;;;5.17;74.22;98330.16;5092662;28;20051;-47
2023/11/27 05:53:12;;;;;;;25.92;12.38;;;;;;;5.96;72.46;98328.00;5092664;28;20028;-47
2023/11/27 05:55:39;;;;;;;19.65;11.15;;;;;;;6.41;70.69;98322.75;5092691;28;20030;-47
2023/11/27 05:58:06;;;;;;;20.40;10.20;;;;;;;6.68;69.32;98329.09;5074402;28;20031;-49
2023/11/27 06:00:32;;;;;;;32.00;11.75;;;;;;;6.71;67.69;98326.09;5091211;28;20024;-49
2023/11/27 06:02:57;;;;;;;25.33;11.20;;;;;;;6.56;67.92;98331.38;5092594;28;20021;-49
2023/11/27 06:05:24;;;;;;;25.25;11.30;;;;;;;6.62;68.53;98332.44;5074354;28;20024;-49
2023/11/27 06:07:50;;;;;;;25.50;11.77;;;;;;;6.96;68.03;98329.19;5091279;28;20061;-49
2023/11/27 06:10:16;;;;;;;22.88;12.23;;;;;;;7.05;67.01;98329.06;5091116;28;20031;-49
2023/11/27 06:12:43;;;;;;;23.85;12.27;;;;;;;6.80;64.82;98332.84;5091100;28;20020;-49
2023/11/27 06:15:13;;;;;;;27.17;14.30;;;;;;;6.12;63.93;98341.84;5090991;28;20032;-49
2023/11/27 06:17:43;;;;;;;28.80;17.73;;;;;;;5.75;67.67;98346.09;5092398;28;20450;-49
2023/11/27 06:20:09;;;;;;;26.85;16.10;;;;;;;6.07;68.59;98341.56;5090849;28;20032;-49
2023/11/27 06:22:36;;;;;;;49.97;18.17;;;;;;;6.40;67.94;98342.00;5090890;28;20027;-50
2023/11/27 06:25:02;;;;;;;37.30;18.33;;;;;;;6.47;66.97;98342.88;5090580;28;20023;-50
2023/11/27 06:27:28;;;;;;;49.00;18.05;;;;;;;6.47;66.93;98332.44;5090928;28;20028;-49
2023/11/27 06:29:54;;;;;;;41.25;15.52;;;;;;;6.60;67.58;98337.84;5090799;28;20436;-49
2023/11/27 06:32:20;;;;;;;37.92;16.90;;;;;;;6.62;66.22;98336.81;5090810;28;20115;-49
2023/11/27 06:34:47;;;;;;;19.15;13.57;;;;;;;6.31;64.96;98341.28;5092120;28;20020;-49
2023/11/27 06:37:13;;;;;;;43.13;23.85;;;;;;;5.75;64.76;98344.28;5090673;28;20027;-49
2023/11/27 06:39:39;;;;;;;23.85;14.50;;;;;;;5.68;67.67;98348.59;5091972;28;20047;-49
2023/11/27 06:42:04;;;;;;;27.45;14.80;;;;;;;5.78;68.24;98343.94;5091931;28;20055;-49
2023/11/27 06:44:30;;;;;;;31.45;13.80;;;;;;;5.65;66.80;98346.34;5091917;28;20070;-49
2023/11/27 06:46:59;;;;;;;34.58;18.70;;;;;;;5.37;67.10;98339.13;5091889;28;20528;-49
2023/11/27 06:49:24;;;;;;;20.02;14.73;;;;;;;5.11;67.37;98344.69;5090579;28;20401;-49
2023/11/27 06:51:50;;;;;;;25.85;14.68;;;;;;;4.92;67.55;98343.34;5091810;28;20111;-49
2023/11/27 06:54:16;;;;;;;28.25;15.00;;;;;;;4.73;68.77;98334.19;5091795;28;20482;-49
2023/11/27 06:56:42;;;;;;;23.17;14.43;;;;;;;4.63;68.66;98333.59;5091789;28;20028;-49
2023/11/27 06:59:09;;;;;;;23.63;17.50;;;;;;;4.53;68.98;98327.81;5090490;28;20022;-49
2023/11/27 07:01:39;;;;;;;30.75;17.70;;;;;;;4.52;70.12;98318.38;5094000;28;20062;-49
2023/11/27 07:04:05;;;;;;;25.38;13.02;;;;;;;4.88;71.13;98323.84;5095960;28;20061;-48
2023/11/27 07:06:30;;;;;;;28.33;14.23;;;;;;;5.55;71.76;98322.34;5096214;28;20063;-49
2023/11/27 07:08:59;;;;;;;24.95;15.02;;;;;;;6.16;70.77;98310.03;5095922;28;20028;-49
2023/11/27 07:11:25;;;;;;;20.60;10.55;;;;;;;6.23;68.51;98309.31;5095921;28;20443;-49
2023/11/27 07:13:51;;;;;;;17.45;10.02;;;;;;;6.12;69.19;98305.38;5095847;28;20028;-49
2023/11/27 07:16:17;;;;;;;25.13;11.88;;;;;;;5.88;68.83;98309.03;5095741;28;20035;-49
2023/11/27 07:18:46;;;;;;;20.30;9.90;;;;;;;6.06;69.89;98304.28;5095958;28;20060;-49
2023/11/27 07:21:12;;;;;;;20.65;9.57;;;;;;;6.19;69.08;98299.25;5095560;28;20020;-49
2023/11/27 07:23:40;;;;;;;22.80;9.73;;;;;;;6.34;68.42;98304.44;5095698;28;20016;-49
2023/11/27 07:26:07;;;;;;;17.77;9.68;;;;;;;6.24;67.96;98301.31;5095249;28;20044;-50
2023/11/27 07:28:33;;;;;;;16.42;10.32;;;;;;;6.46;68.88;98296.97;5094361;28;20032;-49
2023/11/27 07:30:59;;;;;;;18.25;8.80;;;;;;;6.84;68.22;98296.78;5094323;28;20028;-49
2023/11/27 07:33:24;;;;;;;24.75;10.18;;;;;;;6.92;67.66;98294.03;5095469;28;20505;-49
2023/11/27 07:35:50;;;;;;;18.13;9.60;;;;;;;7.17;67.99;98294.44;5095313;28;20031;-49
2023/11/27 07:38:16;;;;;;;15.52;8.75;;;;;;;7.58;65.72;98288.53;5094009;28;20024;-49
2023/11/27 07:40:42;;;;;;;27.65;10.48;;;;;;;7.37;65.72;98285.97;5094090;28;20028;-49
2023/11/27 07:43:10;;;;;;;24.10;10.05;;;;;;;7.54;66.02;98297.72;5095605;28;20028;-49
2023/11/27 07:45:37;;;;;;;18.65;8.63;;;;;;;7.49;65.16;98288.88;5095220;28;20028;-49
2023/11/27 07:48:02;;;;;;;19.50;9.48;;;;;;;7.31;63.65;98292.75;5095127;28;20494;-49
2023/11/27 07:50:29;;;;;;;21.45;10.15;;;;;;;7.28;66.08;98285.28;5094157;28;20024;-49
2023/11/27 07:52:55;;;;;;;21.85;9.80;;;;;;;7.75;65.57;98290.84;5095109;28;20091;-49
2023/11/27 07:55:21;;;;;;;23.02;8.25;;;;;;;8.15;64.36;98276.19;5095005;28;20425;-49
2023/11/27 07:57:47;;;;;;;27.75;12.38;;;;;;;8.45;63.29;98288.19;5093834;28;20024;-49
2023/11/27 08:00:16;;;;;;;28.08;12.05;;;;;;;8.51;62.34;98293.47;5094827;28;20024;-49
2023/11/27 08:02:47;;;;;;;27.20;11.80;;;;;;;8.55;62.77;98281.59;5095453;28;20486;-49
2023/11/27 08:05:15;;;;;;;18.30;10.85;;;;;;;8.76;62.26;98270.16;5094836;28;20035;-49
2023/11/27 08:07:40;;;;;;;31.38;11.43;;;;;;;9.03;61.90;98266.78;5093542;28;20565;-50
2023/11/27 08:10:08;;;;;;;29.70;12.25;;;;;;;9.28;61.24;98254.69;5093436;28;20123;-49
2023/11/27 08:12:38;;;;;;;22.48;11.63;;;;;;;9.58;60.65;98260.31;5094453;28;20060;-49
2023/11/27 08:15:06;;;;;;;22.00;11.85;;;;;;;9.80;59.26;98254.81;5094587;28;20024;-49
2023/11/27 08:17:33;;;;;;;34.45;13.68;;;;;;;9.56;58.77;98270.19;5094638;28;20039;-49
2023/11/27 08:20:00;;;;;;;31.55;12.68;;;;;;;9.35;59.60;98278.25;5093306;28;20371;-50
2023/11/27 08:22:26;;;;;;;26.00;13.90;;;;;;;9.10;59.73;98272.81;5093270;28;20142;-49
2023/11/27 08:24:52;;;;;;;21.20;12.75;;;;;;;8.74;59.46;98268.75;5076286;28;20115;-49
2023/11/27 08:27:20;;;;;;;27.33;13.88;;;;;;;8.46;60.83;98263.66;5092954;28;20101;-49
2023/11/27 08:29:47;;;;;;;28.17;12.13;;;;;;;8.59;61.21;98267.13;5094649;28;20024;-50
2023/11/27 08:32:13;;;;;;;50.17;29.00;;;;;;;8.51;60.85;98261.25;5094346;28;20498;-49
2023/11/27 08:34:38;;;;;;;29.42;13.20;;;;;;;8.69;61.32;98258.06;5094296;28;20021;-49
2023/11/27 08:37:06;;;;;;;33.53;15.63;;;;;;;8.95;60.58;98250.28;5094202;28;20024;-49
2023/11/27 08:39:32;;;;;;;40.40;20.05;;;;;;;9.00;59.94;98245.22;5094034;28;20020;-50
2023/11/27 08:41:57;;;;;;;29.50;16.73;;;;;;;8.76;59.94;98230.91;5094090;28;20070;-50
2023/11/27 08:44:23;;;;;;;32.78;14.98;;;;;;;8.60;60.30;98237.31;5093103;28;20028;-49
2023/11/27 08:46:49;;;;;;;24.50;16.25;;;;;;;8.43;60.62;98241.34;5093004;28;20024;-49
2023/11/27 08:49:15;;;;;;;35.78;15.18;;;;;;;8.22;60.51;98244.03;5093956;28;20099;-49
2023/11/27 08:51:45;;;;;;;26.17;13.85;;;;;;;8.12;61.03;98234.75;5093928;28;20028;-49
2023/11/27 08:54:11;;;;;;;45.17;14.80;;;;;;;8.10;62.05;98228.91;5093851;28;20077;-49
2023/11/27 08:56:40;;;;;;;36.50;12.77;;;;;;;8.34;62.76;98226.78;5093870;28;20024;-50
2023/11/27 08:59:07;;;;;;;26.80;13.18;;;;;;;8.75;62.10;98231.09;5093735;28;20023;-49
2023/11/27 09:01:33;;;;;;;31.75;14.80;;;;;;;8.82;61.75;98223.28;5092558;28;20110;-49
2023/11/27 09:03:59;;;;;;;42.80;16.08;;;;;;;8.84;64.34;98219.47;5093771;28;20100;-49
2023/11/27 09:06:25;;;;;;;33.15;13.68;;;;;;;8.87;64.85;98216.41;5092336;28;20031;-49
2023/11/27 09:08:52;;;;;;;30.13;13.13;;;;;;;8.68;63.95;98218.03;5092262;28;20032;-49
2023/11/27 09:11:18;;;;;;;33.08;12.65;;;;;;;8.62;63.50;98215.41;5093560;28;20595;-49
2023/11/27 09:13:43;;;;;;;30.77;14.35;;;;;;;8.46;62.97;98203.50;5092482;28;20023;-49
2023/11/27 09:16:10;;;;;;;31.63;14.77;;;;;;;8.33;62.80;98204.25;5092132;28;20031;-49
2023/11/27 09:18:36;;;;;;;43.60;19.90;;;;;;;8.27;63.36;98190.19;5092007;28;20123;-49
2023/11/27 09:21:02;;;;;;;49.70;30.58;;;;;;;8.65;64.07;98184.41;5092045;28;20119;-50
2023/11/27 09:23:27;;;;;;;52.85;31.17;;;;;;;8.95;63.29;98179.63;5091277;28;20449;-49
2023/11/27 09:25:53;;;;;;;32.85;15.10;;;;;;;9.13;62.90;98178.16;5093022;28;20046;-49
2023/11/27 09:28:19;;;;;;;24.42;12.93;;;;;;;8.99;61.92;98178.19;5093271;28;20039;-49
2023/11/27 09:30:44;;;;;;;33.88;14.25;;;;;;;8.85;62.16;98176.56;5091811;28;20085;-49
2023/11/27 09:33:12;;;;;;;42.03;17.48;;;;;;;8.93;62.69;98168.53;5092120;28;20031;-49
2023/11/27 09:35:39;;;;;;;31.75;11.43;;;;;;;9.41;62.90;98167.44;5093106;28;20402;-49
2023/11/27 09:38:08;;;;;;;25.15;11.80;;;;;;;9.83;61.42;98162.66;5091713;28;20028;-49
2023/11/27 09:40:41;;;;;;;30.27;11.68;;;;;;;10.13;60.17;98155.06;5092899;28;20020;-49
2023/11/27 09:43:09;;;;;;;38.13;13.05;;;;;;;10.39;60.13;98151.50;5093044;28;20028;-50
2023/11/27 09:45:37;;;;;;;50.40;37.90;;;;;;;10.42;62.98;98154.72;5091650;28;20016;-49
2023/11/27 09:48:10;;;;;;;24.88;13.52;;;;;;;10.02;65.02;98152.28;5091502;28;20115;-49
2023/11/27 09:50:36;;;;;;;36.80;16.50;;;;;;;9.48;67.08;98149.91;5091605;28;20441;-49
2023/11/27 09:53:07;;;;;;;39.25;20.58;;;;;;;9.26;69.11;98144.13;5091453;28;20062;-49
2023/11/27 09:55:39;;;;;;;66.65;50.65;;;;;;;9.31;70.95;98141.69;5092701;28;20520;-50
2023/11/27 09:58:06;;;;;;;85.28;63.05;;;;;;;9.55;70.39;98136.78;5092670;28;20688;-50
2023/11/27 10:00:32;;;;;;;46.67;33.17;;;;;;;9.74;69.26;98137.72;5091278;28;20023;-49
2023/11/27 10:02:58;;;;;;;80.80;48.05;;;;;;;9.71;68.10;98135.50;5091594;28;20098;-50
2023/11/27 10:05:25;;;;;;;51.75;38.38;;;;;;;9.81;67.43;98133.25;5092525;28;20091;-50
2023/11/27 10:07:52;;;;;;;31.27;16.55;;;;;;;9.72;65.90;98131.91;5092451;28;20035;-49
2023/11/27 10:10:25;;;;;;;60.78;36.58;;;;;;;9.46;65.99;98133.59;5091209;28;20115;-49
2023/11/27 10:13:06;;;;;;;57.15;30.58;;;;;;;9.27;66.13;98123.97;5091204;28;20508;-49
2023/11/27 10:15:33;;;;;;;47.40;23.60;;;;;;;9.46;66.13;98112.63;5092710;28;20452;-49
2023/11/27 10:18:00;;;;;;;43.45;17.90;;;;;;;9.86;67.14;98098.53;5092403;28;20074;-50
2023/11/27 10:20:28;;;;;;;34.60;20.98;;;;;;;9.85;68.15;98091.72;5090941;28;20490;-50
2023/11/27 10:22:58;;;;;;;33.95;20.83;;;;;;;9.68;70.04;98084.34;5092285;28;20507;-49
2023/11/27 10:25:24;;;;;;;79.32;57.30;;;;;;;9.75;69.83;98082.47;5090675;28;20048;-50
2023/11/27 10:27:57;;;;;;;28.63;18.38;;;;;;;9.99;68.30;98082.75;5090834;28;20093;-49
2023/11/27 10:30:25;;;;;;;34.08;16.83;;;;;;;9.96;66.90;98070.06;5090880;28;20081;-49
2023/11/27 10:32:52;;;;;;;215.00;154.43;;;;;;;9.91;66.29;98065.44;5090754;28;20576;-49
2023/11/27 10:35:20;;;;;;;36.13;21.25;;;;;;;9.90;65.77;98055.16;5090739;28;20082;-50
2023/11/27 10:37:49;;;;;;;131.75;112.88;;;;;;;10.12;64.91;98063.50;5091942;28;20020;-49
2023/11/27 10:40:17;;;;;;;41.03;19.90;;;;;;;10.20;63.64;98050.94;5091937;28;20103;-49
2023/11/27 10:42:47;;;;;;;62.92;32.92;;;;;;;10.23;64.78;98056.78;5092017;28;20016;-49
2023/11/27 10:45:19;;;;;;;35.33;15.40;;;;;;;10.29;64.39;98045.44;5090633;28;20024;-49
2023/11/27 10:47:47;;;;;;;58.83;27.70;;;;;;;10.26;63.97;98043.22;5090585;28;20020;-50
2023/11/27 10:50:15;;;;;;;30.10;15.82;;;;;;;10.38;63.79;98036.31;5090537;28;20028;-50
2023/11/27 10:52:44;;;;;;;46.50;27.27;;;;;;;10.55;62.90;98036.56;5091880;28;20020;-49
2023/11/27 10:55:15;;;;;;;41.83;20.80;;;;;;;10.82;62.65;98018.72;5091905;28;20872;-50
2023/11/27 10:57:43;;;;;;;54.55;18.33;;;;;;;10.86;61.93;98014.66;5091907;28;20076;-50
2023/11/27 11:00:09;;;;;;;29.98;14.40;;;;;;;10.83;61.88;98004.59;5090402;28;20121;-50
2023/11/27 11:02:38;;;;;;;50.35;41.30;;;;;;;10.80;61.84;98002.41;5091849;28;20023;-50
2023/11/27 11:05:07;;;;;;;48.60;19.95;;;;;;;10.68;62.77;97993.66;5091737;28;20088;-50
2023/11/27 11:07:43;;;;;;;44.53;20.80;;;;;;;10.68;64.07;97991.81;5090479;28;20035;-50
2023/11/27 11:10:11;;;;;;;31.30;18.23;;;;;;;10.75;64.04;97983.88;5090421;28;20063;-50
2023/11/27 11:12:45;;;;;;;30.83;21.40;;;;;;;10.89;64.90;97974.84;5090388;28;20027;-50
2023/11/27 11:15:17;;;;;;;24.08;14.38;;;;;;;10.95;63.23;97962.66;5073685;28;20032;-49
2023/11/27 11:18:10;;;;;;;30.88;16.50;;;;;;;10.46;65.06;97952.06;5090349;28;20031;-49
2023/11/27 11:20:46;;;;;;;28.40;16.67;;;;;;;10.26;65.71;97943.56;5091853;28;20024;-49
2023/11/27 11:23:24;;;;;;;28.90;14.25;;;;;;;9.96;66.54;97941.63;5091682;28;20020;-50